Dades meteomassalio
Diari Summary for Noviembre 18, 2017 Units:  Metric    English   Both
« Previous Day
Next Day »
Diari Semanal Mensual Anual Personalitzat
  Maxima: Minima: Mijana:
Temperatura: -17.8 °C -18.7 °C -14.7 °C
Rosada: -17.8 °C -20.9 °C -18.1 °C
Humitat: Humidity % 47 % 66 %
Velocitat del vent: 0 km/h 0 km/h 8.4 km/h
Racha vent: 0 km/h - -
Vent:- - NW
Pressio: 0 hPa 34635.4 hPa -
Pluja: 0 mm    
Historical Graphs
 
 
Tabular Data for Noviembre 18, 2017
Time Temperature Dew Point Pressure Wind Wind Speed Wind Gust Humidity Rainfall Rate (Hourly) solar Conditions
-17.8 °C -17.8 °C 0 hPa Calm     Humidity % 0 mm SolarRadiationWatts/m^2 W/m2 Conditions
00:03 -16.8 °C -20 °C 34682.8 hPa Calm     66 % 0 mm 0.0 W/m2 CLR
00:08 -16.8 °C -20 °C 34682.8 hPa Calm     66 % 0 mm 0.0 W/m2 CLR
00:13 -16.6 °C -19.8 °C 34682.8 hPa Calm     65 % 0 mm 0.0 W/m2 CLR
00:18 -16.6 °C -19.7 °C 34682.8 hPa Calm     66 % 0 mm 0.0 W/m2 CLR
00:23 -16.8 °C -19.9 °C 34693 hPa Calm     67 % 0 mm 0.0 W/m2 CLR
00:28 -16.8 °C -19.8 °C 34682.8 hPa Calm     68 % 0 mm 0.0 W/m2 CLR
00:33 -16.8 °C -19.7 °C 34682.8 hPa Calm     69 % 0 mm 0.0 W/m2 CLR
00:38 -16.8 °C -19.7 °C 34693 hPa Calm     69 % 0 mm 0.0 W/m2 CLR
00:43 -16.8 °C -19.8 °C 34682.8 hPa Calm     68 % 0 mm 0.0 W/m2 CLR
00:48 -16.8 °C -19.7 °C 34682.8 hPa Calm     69 % 0 mm 0.0 W/m2 CLR
00:53 -16.8 °C -19.8 °C 34682.8 hPa Calm     68 % 0 mm 0.0 W/m2 CLR
00:58 -17.2 °C -20.2 °C 34682.8 hPa Calm     67 % 0 mm 0.0 W/m2 CLR
01:03 -17.2 °C -20.1 °C 34682.8 hPa Calm     68 % 0 mm 0.0 W/m2 CLR
01:08 -17.4 °C -20.1 °C 34682.8 hPa Calm     71 % 0 mm 0.0 W/m2 CLR
01:13 -17.4 °C -20.1 °C 34682.8 hPa Calm     71 % 0 mm 0.0 W/m2 CLR
01:18 -17.8 °C -20.3 °C 34682.8 hPa Calm     71 % 0 mm 0.0 W/m2 CLR
01:23 -17.8 °C -20.2 °C 34682.8 hPa Calm     72 % 0 mm 0.0 W/m2 CLR
01:28 -17.8 °C -20.1 °C 34682.8 hPa Calm     74 % 0 mm 0.0 W/m2 CLR
01:33 -17.8 °C -20.2 °C 34682.8 hPa Calm     72 % 0 mm 0.0 W/m2 CLR
01:38 -18.1 °C -20.7 °C 34682.8 hPa Calm     71 % 0 mm 0.0 W/m2 CLR
01:43 -18.1 °C -20.7 °C 34669.3 hPa Calm     71 % 0 mm 0.0 W/m2 CLR
01:48 -18.1 °C -20.7 °C 34669.3 hPa Calm     71 % 0 mm 0.0 W/m2 CLR
01:53 -18.1 °C -20.7 °C 34669.3 hPa Calm     71 % 0 mm 0.0 W/m2 CLR
01:58 -18.1 °C -20.7 °C 34669.3 hPa Calm     71 % 0 mm 0.0 W/m2 CLR
02:03 -18.1 °C -20.7 °C 34669.3 hPa Calm     70 % 0 mm 0.0 W/m2 CLR
02:08 -18.1 °C -20.7 °C 34659.1 hPa Calm     70 % 0 mm 0.0 W/m2 CLR
02:13 -18.1 °C -20.9 °C 34659.1 hPa Calm     69 % 0 mm 0.0 W/m2 CLR
02:18 -18.1 °C -20.9 °C 34659.1 hPa Calm     68 % 0 mm 0.0 W/m2 CLR
02:23 -18.1 °C -20.9 °C 34659.1 hPa Calm     68 % 0 mm 0.0 W/m2 CLR
02:28 -18.1 °C -20.7 °C 34659.1 hPa Calm     70 % 0 mm 0.0 W/m2 CLR
02:33 -18.1 °C -20.7 °C 34659.1 hPa Calm     70 % 0 mm 0.0 W/m2 CLR
02:39 -18.1 °C -20.7 °C 34659.1 hPa Calm     70 % 0 mm 0.0 W/m2 CLR
02:44 -18.1 °C -20.7 °C 34659.1 hPa Calm     71 % 0 mm 0.0 W/m2 CLR
02:49 -18.1 °C -20.6 °C 34659.1 hPa Calm     72 % 0 mm 0.0 W/m2 CLR
02:54 -18.1 °C -20.4 °C 34659.1 hPa Calm     73 % 0 mm 0.0 W/m2 CLR
02:59 -18.4 °C -20.7 °C 34659.1 hPa Calm     73 % 0 mm 0.0 W/m2 CLR
03:04 -18.1 °C -20.6 °C 34659.1 hPa Calm     72 % 0 mm 0.0 W/m2 CLR
03:09 -18.1 °C -20.6 °C 34669.3 hPa Calm     72 % 0 mm 0.0 W/m2 CLR
03:14 -18.1 °C -20.6 °C 34669.3 hPa Calm     72 % 0 mm 0.0 W/m2 CLR
03:19 -18.1 °C -20.6 °C 34669.3 hPa Calm     72 % 0 mm 0.0 W/m2 CLR
03:24 -18.1 °C -20.6 °C 34669.3 hPa Calm     72 % 0 mm 0.0 W/m2 CLR
03:29 -18.1 °C -20.6 °C 34669.3 hPa Calm     72 % 0 mm 0.0 W/m2 CLR
03:34 -18.1 °C -20.6 °C 34669.3 hPa Calm     72 % 0 mm 0.0 W/m2 CLR
03:39 -18.1 °C -20.4 °C 34669.3 hPa Calm     73 % 0 mm 0.0 W/m2 CLR
03:44 -17.8 °C -20.2 °C 34669.3 hPa Calm     72 % 0 mm 0.0 W/m2 CLR
03:54 -17.8 °C -20.2 °C 34669.3 hPa Calm     72 % 0 mm 0.0 W/m2 CLR
03:59 -17.4 °C -20.1 °C 34669.3 hPa Calm     71 % 0 mm 0.0 W/m2 CLR
04:04 -17.4 °C -20.1 °C 34669.3 hPa Calm     71 % 0 mm 0.0 W/m2 CLR
04:09 -17.4 °C -19.9 °C 34669.3 hPa Calm     72 % 0 mm 0.0 W/m2 CLR
04:14 -17.4 °C -19.9 °C 34669.3 hPa Calm     72 % 0 mm 0.0 W/m2 CLR
04:20 -17.4 °C -19.8 °C 34659.1 hPa Calm     73 % 0 mm 0.0 W/m2 CLR
04:22 -17.4 °C -19.8 °C 34659.1 hPa Calm     73 % 0 mm 0.0 W/m2 CLR
04:23 -17.4 °C -19.8 °C 34659.1 hPa Calm     73 % 0 mm 0.0 W/m2 CLR
04:24 -17.4 °C -19.8 °C 34659.1 hPa Calm     73 % 0 mm 0.0 W/m2 CLR
04:27 -17.8 °C -20.2 °C 34659.1 hPa Calm     73 % 0 mm 0.0 W/m2 CLR
04:32 -17.8 °C -20.2 °C 34659.1 hPa Calm     73 % 0 mm 0.0 W/m2 CLR
04:33 -17.8 °C -20.1 °C 34659.1 hPa Calm     74 % 0 mm 0.0 W/m2 CLR
04:37 -17.8 °C -20.1 °C 34669.3 hPa Calm     74 % 0 mm 0.0 W/m2 CLR
04:42 -17.8 °C -19.9 °C 34669.3 hPa Calm     75 % 0 mm 0.0 W/m2 CLR
04:47 -17.8 °C -19.8 °C 34669.3 hPa Calm     77 % 0 mm 0.0 W/m2 CLR
04:52 -17.8 °C -19.8 °C 34669.3 hPa Calm     76 % 0 mm 0.0 W/m2 CLR
04:57 -17.8 °C -19.8 °C 34669.3 hPa Calm     77 % 0 mm 0.0 W/m2 CLR
05:02 -17.8 °C -19.7 °C 34669.3 hPa Calm     78 % 0 mm 0.0 W/m2 CLR
05:07 -17.8 °C -19.8 °C 34669.3 hPa Calm     77 % 0 mm 0.0 W/m2 CLR
05:12 -17.8 °C -19.8 °C 34669.3 hPa Calm     77 % 0 mm 0.0 W/m2 CLR
05:17 -18.1 °C -19.9 °C 34669.3 hPa Calm     78 % 0 mm 0.0 W/m2 CLR
05:22 -17.8 °C -19.8 °C 34669.3 hPa Calm     77 % 0 mm 0.0 W/m2 CLR
05:27 -17.8 °C -19.7 °C 34669.3 hPa Calm     78 % 0 mm 0.0 W/m2 CLR
05:32 -17.8 °C -19.7 °C 34669.3 hPa Calm     78 % 0 mm 0.0 W/m2 CLR
05:37 -17.8 °C -19.7 °C 34669.3 hPa Calm     78 % 0 mm 0.0 W/m2 CLR
05:42 -17.8 °C -19.6 °C 34669.3 hPa Calm     79 % 0 mm 0.0 W/m2 CLR
05:47 -17.8 °C -19.6 °C 34669.3 hPa Calm     79 % 0 mm 0.0 W/m2 CLR
05:52 -18.1 °C -19.9 °C 34669.3 hPa Calm     79 % 0 mm 0.0 W/m2 CLR
05:57 -17.8 °C -19.6 °C 34669.3 hPa Calm     79 % 0 mm 0.0 W/m2 CLR
06:02 -17.8 °C -19.6 °C 34669.3 hPa Calm     79 % 0 mm 0.0 W/m2 CLR
06:07 -17.8 °C -19.3 °C 34669.3 hPa Calm     82 % 0 mm 0.0 W/m2 CLR
06:12 -17.8 °C -19.4 °C 34669.3 hPa Calm     81 % 0 mm 0.0 W/m2 CLR
06:17 -17.8 °C -19.6 °C 34669.3 hPa Calm     79 % 0 mm 0.0 W/m2 CLR
06:27 -18.1 °C -19.7 °C 34669.3 hPa Calm     81 % 0 mm 0.0 W/m2 CLR
06:32 -18.1 °C -19.6 °C 34669.3 hPa Calm     82 % 0 mm 0.0 W/m2 CLR
06:37 -18.1 °C -19.5 °C 34669.3 hPa Calm     83 % 0 mm 0.0 W/m2 CLR
06:42 -18.1 °C -19.6 °C 34669.3 hPa Calm     82 % 0 mm 0.0 W/m2 CLR
06:47 -18.1 °C -19.6 °C 34669.3 hPa Calm     82 % 0 mm 0.0 W/m2 CLR
06:52 -18.1 °C -19.9 °C 34669.3 hPa Calm     78 % 0 mm 0.0 W/m2 CLR
06:57 -18.1 °C -19.9 °C 34669.3 hPa Calm     79 % 0 mm 0.0 W/m2 CLR
07:02 -18.4 °C -20.1 °C 34669.3 hPa Calm     80 % 0 mm 0.0 W/m2 CLR
07:07 -18.1 °C -19.5 °C 34669.3 hPa Calm     83 % 0 mm 0.0 W/m2 CLR
07:13 -18.1 °C -19.7 °C 34669.3 hPa Calm     81 % 0 mm 0.0 W/m2 CLR
07:18 -18.1 °C -19.7 °C 34669.3 hPa Calm     81 % 0 mm 0.0 W/m2 CLR
07:23 -18.1 °C -19.7 °C 34669.3 hPa Calm     81 % 0 mm 0.0 W/m2 CLR
07:28 -18.4 °C -19.9 °C 34669.3 hPa Calm     81 % 0 mm 0.0 W/m2 CLR
07:33 -18.4 °C -19.9 °C 34669.3 hPa Calm     81 % 0 mm 0.0 W/m2 CLR
07:38 -18.4 °C -20.2 °C 34669.3 hPa Calm     79 % 0 mm 0.0 W/m2 CLR
07:43 -18.4 °C -20.4 °C 34669.3 hPa Calm     76 % 0 mm 0.0 W/m2 OVC
07:48 -18.7 °C -20.7 °C 34669.3 hPa Calm     76 % 0 mm 0.0 W/m2 OVC
07:53 -18.7 °C -20.7 °C 34669.3 hPa Calm     76 % 0 mm 5.0 W/m2 OVC
07:58 -18.7 °C -20.9 °C 34669.3 hPa Calm     74 % 0 mm 7.0 W/m2 OVC
08:03 -18.7 °C -20.7 °C 34682.8 hPa Calm     77 % 0 mm 9.0 W/m2 OVC
08:08 -18.4 °C -20.1 °C 34682.8 hPa Calm     80 % 0 mm 12.0 W/m2 OVC
08:13 -18.4 °C -20.1 °C 34682.8 hPa Calm     80 % 0 mm 14.0 W/m2 OVC
08:18 -18.1 °C -19.8 °C 34682.8 hPa Calm     80 % 0 mm 16.0 W/m2 OVC
08:23 -18.1 °C -19.9 °C 34682.8 hPa Calm     79 % 0 mm 23.0 W/m2 OVC
08:28 -17.8 °C -19.6 °C 34682.8 hPa Calm     79 % 0 mm 33.0 W/m2 OVC
08:33 -17.8 °C -19.6 °C 34693 hPa Calm     79 % 0 mm 39.0 W/m2 OVC
08:38 -17.8 °C -19.7 °C 34693 hPa Calm     78 % 0 mm 54.0 W/m2 OVC
08:43 -17.8 °C -19.8 °C 34682.8 hPa Calm     76 % 0 mm 65.0 W/m2 OVC
08:48 -17.4 °C -19.8 °C 34693 hPa Calm     74 % 0 mm 62.0 W/m2 OVC
08:53 -17.4 °C -19.9 °C 34693 hPa Calm     72 % 0 mm 81.0 W/m2 BKN
08:58 -17.4 °C -19.9 °C 34693 hPa Calm     72 % 0 mm 93.0 W/m2 SCT
09:03 -17.4 °C -19.8 °C 34693 hPa Calm     74 % 0 mm 98.0 W/m2 CLR
09:08 -17.2 °C -19.6 °C 34693 hPa Calm     73 % 0 mm 109.0 W/m2 CLR
09:13 -17.2 °C -19.7 °C 34693 hPa Calm     72 % 0 mm 107.0 W/m2 CLR
09:18 -16.8 °C -19.6 °C 34693 hPa Calm     70 % 0 mm 167.0 W/m2 CLR
09:23 -16.6 °C -19.5 °C 34693 hPa Calm     68 % 0 mm 181.0 W/m2 CLR
09:28 -16.2 °C -19.2 °C 34693 hPa Calm   0.3 km/h 68 % 0 mm 144.0 W/m2 CLR
09:33 -15.9 °C -18.9 °C 34693 hPa NW 29.8 km/h 29.8 km/h 68 % 0 mm 213.0 W/m2 CLR
09:38 -15.6 °C -19.1 °C 34693 hPa NNW 29.8 km/h 29.8 km/h 64 % 0 mm 227.0 W/m2 CLR
09:43 -15.6 °C -19.3 °C 34693 hPa NNW 23.8 km/h 23.8 km/h 62 % 0 mm 241.0 W/m2 CLR
09:48 -15 °C -18.8 °C 34693 hPa WNW 20.9 km/h 20.9 km/h 61 % 0 mm 253.0 W/m2 CLR
09:53 -14.4 °C -18.4 °C 34703.1 hPa NW 25.9 km/h 25.9 km/h 60 % 0 mm 264.0 W/m2 CLR
09:58 -13.2 °C -17.3 °C 34703.1 hPa NNW 26.9 km/h 26.9 km/h 59 % 0 mm 278.0 W/m2 CLR
10:03 -12.6 °C -16.9 °C 34693 hPa WNW 20.9 km/h 20.9 km/h 58 % 0 mm 288.0 W/m2 CLR
10:08 -11.9 °C -16.4 °C 34703.1 hPa WNW 29.8 km/h 29.8 km/h 57 % 0 mm 297.0 W/m2 CLR
10:13 -11.6 °C -16.3 °C 34703.1 hPa NW 18.2 km/h 18.2 km/h 56 % 0 mm 309.0 W/m2 CLR
10:18 -11.6 °C -16.3 °C 34703.1 hPa West 35.7 km/h 35.7 km/h 56 % 0 mm 322.0 W/m2 CLR
10:23 -11.3 °C -16 °C 34703.1 hPa NNW 38.8 km/h 38.8 km/h 56 % 0 mm 332.0 W/m2 CLR
10:28 -11.3 °C -16 °C 34703.1 hPa NW 38.8 km/h 38.8 km/h 56 % 0 mm 341.0 W/m2 CLR
10:33 -11.3 °C -16.2 °C 34703.1 hPa NW 29.8 km/h 29.8 km/h 55 % 0 mm 352.0 W/m2 CLR
10:38 -11 °C -16 °C 34703.1 hPa NW 32.8 km/h 32.8 km/h 54 % 0 mm 360.0 W/m2 CLR
10:43 -11 °C -16 °C 34703.1 hPa NW 35.7 km/h 35.7 km/h 54 % 0 mm 369.0 W/m2 CLR
10:48 -11 °C -16 °C 34703.1 hPa NW 38.8 km/h 38.8 km/h 54 % 0 mm 380.0 W/m2 CLR
10:53 -11 °C -16 °C 34703.1 hPa NW 32.8 km/h 32.8 km/h 54 % 0 mm 387.0 W/m2 CLR
10:58 -11 °C -16 °C 34703.1 hPa WNW 29.8 km/h 29.8 km/h 54 % 0 mm 396.0 W/m2 CLR
11:03 -11 °C -16 °C 34703.1 hPa NW 29.8 km/h 29.8 km/h 54 % 0 mm 403.0 W/m2 CLR
11:08 -10.7 °C -15.9 °C 34703.1 hPa WNW 29.8 km/h 29.8 km/h 53 % 0 mm 411.0 W/m2 CLR
11:13 -10.7 °C -15.9 °C 34703.1 hPa North 32.8 km/h 33.2 km/h 53 % 0 mm 418.0 W/m2 CLR
11:18 -10.7 °C -15.9 °C 34703.1 hPa NW 29.8 km/h 29.8 km/h 53 % 0 mm 424.0 W/m2 CLR
11:23 -10.7 °C -16 °C 34703.1 hPa NNW 29.8 km/h 29.8 km/h 52 % 0 mm 432.0 W/m2 CLR
11:28 -10.7 °C -16 °C 34703.1 hPa NW 29.8 km/h 29.8 km/h 52 % 0 mm 438.0 W/m2 CLR
11:33 -10.7 °C -16 °C 34716.7 hPa NNW 29.8 km/h 29.8 km/h 52 % 0 mm 443.0 W/m2 CLR
11:38 -10.4 °C -15.7 °C 34703.1 hPa WNW 29.8 km/h 29.8 km/h 52 % 0 mm 448.0 W/m2 CLR
11:43 -10.4 °C -15.7 °C 34703.1 hPa NW 26.9 km/h 26.9 km/h 52 % 0 mm 452.0 W/m2 CLR
11:48 -10.4 °C -15.7 °C 34703.1 hPa WNW 29.8 km/h 29.8 km/h 52 % 0 mm 459.0 W/m2 CLR
11:53 -10.4 °C -15.7 °C 34703.1 hPa NW 26.9 km/h 26.9 km/h 52 % 0 mm 464.0 W/m2 CLR
11:58 -10.4 °C -15.7 °C 34703.1 hPa NNW 23.8 km/h 23.8 km/h 52 % 0 mm 468.0 W/m2 CLR
12:03 -10.1 °C -15.6 °C 34703.1 hPa NNW 35.7 km/h 35.7 km/h 51 % 0 mm 471.0 W/m2 CLR
12:08 -10.1 °C -15.4 °C 34703.1 hPa North 26.9 km/h 26.9 km/h 52 % 0 mm 475.0 W/m2 CLR
12:13 -10.1 °C -15.6 °C 34693 hPa North 32.8 km/h 32.8 km/h 51 % 0 mm 476.0 W/m2 CLR
12:18 -10.1 °C -15.6 °C 34693 hPa North 41.7 km/h 41.7 km/h 51 % 0 mm 480.0 W/m2 CLR
12:23 -10.1 °C -15.6 °C 34693 hPa North 23.8 km/h 23.8 km/h 51 % 0 mm 482.0 W/m2 CLR
12:28 -10.1 °C -15.8 °C 34693 hPa NW 35.7 km/h 35.7 km/h 50 % 0 mm 483.0 W/m2 CLR
12:33 -9.8 °C -15.4 °C 34693 hPa NNW 26.9 km/h 26.9 km/h 50 % 0 mm 485.0 W/m2 CLR
12:38 -9.8 °C -15.7 °C 34682.8 hPa NW 33.6 km/h 33.6 km/h 49 % 0 mm 487.0 W/m2 CLR
12:43 -9.8 °C -15.4 °C 34682.8 hPa NNW 38.8 km/h 38.8 km/h 50 % 0 mm 487.0 W/m2 CLR
12:48 -9.8 °C -15.4 °C 34682.8 hPa North 33.6 km/h 33.6 km/h 50 % 0 mm 487.0 W/m2 CLR
12:53 -9.8 °C -15.7 °C 34682.8 hPa NNW 29.8 km/h 29.8 km/h 49 % 0 mm 487.0 W/m2 CLR
12:58 -9.8 °C -15.7 °C 34682.8 hPa NW 23.8 km/h 23.8 km/h 49 % 0 mm 485.0 W/m2 CLR
13:03 -9.4 °C -15.3 °C 34682.8 hPa NNW 29.8 km/h 29.8 km/h 49 % 0 mm 485.0 W/m2 CLR
13:08 -9.4 °C -15.3 °C 34682.8 hPa North 33.6 km/h 33.6 km/h 49 % 0 mm 482.0 W/m2 CLR
13:13 -9.1 °C -15.1 °C 34682.8 hPa NW 23.8 km/h 23.8 km/h 49 % 0 mm 482.0 W/m2 CLR
13:18 -9.4 °C -15.3 °C 34682.8 hPa NW 29.8 km/h 29.8 km/h 49 % 0 mm 480.0 W/m2 CLR
13:23 -9.4 °C -15.3 °C 34669.3 hPa North 26.9 km/h 26.9 km/h 49 % 0 mm 476.0 W/m2 CLR
13:28 -9.4 °C -15.3 °C 34682.8 hPa NNW 41.7 km/h 41.7 km/h 49 % 0 mm 475.0 W/m2 CLR
13:33 -9.1 °C -15.2 °C 34669.3 hPa NW 29.8 km/h 29.8 km/h 48 % 0 mm 469.0 W/m2 CLR
13:38 -9.1 °C -15.2 °C 34669.3 hPa WNW 26.9 km/h 26.9 km/h 48 % 0 mm 468.0 W/m2 CLR
13:43 -9.1 °C -15.2 °C 34669.3 hPa West 15 km/h 15 km/h 48 % 0 mm 462.0 W/m2 CLR
13:48 -9.1 °C -15.2 °C 34669.3 hPa North 23.8 km/h 23.8 km/h 48 % 0 mm 457.0 W/m2 CLR
13:53 -8.8 °C -14.9 °C 34669.3 hPa NW 26.9 km/h 26.9 km/h 48 % 0 mm 452.0 W/m2 CLR
13:58 -8.8 °C -15.1 °C 34659.1 hPa NNW 29.8 km/h 29.8 km/h 47 % 0 mm 445.0 W/m2 CLR
14:03 -8.8 °C -15.1 °C 34659.1 hPa NW 29.8 km/h 29.8 km/h 47 % 0 mm 439.0 W/m2 CLR
14:09 -8.8 °C -14.9 °C 34659.1 hPa NW 32.8 km/h 32.8 km/h 48 % 0 mm 434.0 W/m2 CLR
14:14 -8.8 °C -14.9 °C 34659.1 hPa NW 29.8 km/h 29.8 km/h 48 % 0 mm 429.0 W/m2 CLR
14:19 -9.1 °C -15.2 °C 34659.1 hPa North 29.8 km/h 29.8 km/h 48 % 0 mm 420.0 W/m2 CLR
14:24 -8.8 °C -14.9 °C 34659.1 hPa NNW 23.8 km/h 23.8 km/h 48 % 0 mm 413.0 W/m2 CLR
14:29 -8.8 °C -14.8 °C 34659.1 hPa WNW 23.8 km/h 23.8 km/h 49 % 0 mm 408.0 W/m2 CLR
14:34 -8.8 °C -14.9 °C 34659.1 hPa NW 20.9 km/h 20.9 km/h 48 % 0 mm 399.0 W/m2 CLR
14:39 -8.8 °C -14.9 °C 34645.6 hPa NW 29.8 km/h 29.8 km/h 48 % 0 mm 390.0 W/m2 CLR
14:44 -8.8 °C -15.1 °C 34645.6 hPa NNW 29.8 km/h 29.8 km/h 47 % 0 mm 378.0 W/m2 CLR
14:49 -8.8 °C -14.9 °C 34645.6 hPa NNW 23.8 km/h 23.8 km/h 48 % 0 mm 373.0 W/m2 CLR
14:54 -8.8 °C -14.9 °C 34645.6 hPa NNW 29.8 km/h 29.8 km/h 48 % 0 mm 362.0 W/m2 CLR
14:59 -8.8 °C -14.9 °C 34645.6 hPa NNW 29.8 km/h 29.8 km/h 48 % 0 mm 353.0 W/m2 CLR
15:04 -8.8 °C -15.1 °C 34635.4 hPa NW 29.8 km/h 29.8 km/h 47 % 0 mm 345.0 W/m2 CLR
15:09 -8.8 °C -14.9 °C 34645.6 hPa NNW 25.9 km/h 25.9 km/h 48 % 0 mm 334.0 W/m2 CLR
15:14 -8.8 °C -14.9 °C 34645.6 hPa WNW 26.9 km/h 26.9 km/h 48 % 0 mm 323.0 W/m2 CLR
15:19 -8.8 °C -14.8 °C 34645.6 hPa NW 20.9 km/h 20.9 km/h 49 % 0 mm 313.0 W/m2 CLR
15:24 -8.8 °C -14.8 °C 34645.6 hPa NNW 23.3 km/h 23.3 km/h 49 % 0 mm 302.0 W/m2 CLR
15:29 -8.8 °C -14.9 °C 34645.6 hPa NNW 29.8 km/h 29.8 km/h 48 % 0 mm 292.0 W/m2 CLR
15:34 -8.8 °C -14.9 °C 34635.4 hPa North 29.8 km/h 29.8 km/h 48 % 0 mm 281.0 W/m2 CLR
15:39 -8.8 °C -14.9 °C 34645.6 hPa NNE 20.9 km/h 20.9 km/h 48 % 0 mm 269.0 W/m2 CLR
15:44 -8.8 °C -14.8 °C 34635.4 hPa NW 29.8 km/h 29.8 km/h 49 % 0 mm 255.0 W/m2 CLR
15:49 -8.8 °C -14.8 °C 34635.4 hPa NNW 29.8 km/h 29.8 km/h 49 % 0 mm 241.0 W/m2 CLR
15:54 -9.1 °C -15.2 °C 34635.4 hPa NW 20.9 km/h 20.9 km/h 48 % 0 mm 227.0 W/m2 CLR
15:59 -9.1 °C -15.1 °C 34635.4 hPa NNW 20.9 km/h 20.9 km/h 49 % 0 mm 213.0 W/m2 CLR
16:04 -9.1 °C -15.1 °C 34635.4 hPa NNW 20.9 km/h 20.9 km/h 49 % 0 mm 197.0 W/m2 CLR
16:09 -9.4 °C -15.3 °C 34635.4 hPa NNW 20.9 km/h 20.9 km/h 49 % 0 mm 181.0 W/m2 CLR
16:14 -9.4 °C -15.3 °C 34635.4 hPa NW 20.9 km/h 20.9 km/h 49 % 0 mm 167.0 W/m2 CLR
16:19 -9.4 °C -15.3 °C 34645.6 hPa NNW 20.9 km/h 20.9 km/h 49 % 0 mm 153.0 W/m2 CLR
16:24 -9.4 °C -15.2 °C 34645.6 hPa NNW 12.9 km/h 12.9 km/h 50 % 0 mm 135.0 W/m2 CLR
16:29 -9.8 °C -15.4 °C 34645.6 hPa Calm     50 % 0 mm 120.0 W/m2 CLR
16:34 -9.8 °C -15.4 °C 34645.6 hPa NNW 15 km/h 15 km/h 50 % 0 mm 107.0 W/m2 CLR
16:39 -9.8 °C -15.4 °C 34645.6 hPa NNW 11.9 km/h   50 % 0 mm 93.0 W/m2 CLR
16:44 -10.1 °C -15.8 °C 34645.6 hPa Calm     50 % 0 mm 81.0 W/m2 FEW
16:49 -10.1 °C -15.6 °C 34645.6 hPa Calm     51 % 0 mm 62.0 W/m2 SCT
16:54 -10.4 °C -15.9 °C 34645.6 hPa Calm     51 % 0 mm 53.0 W/m2 SCT
16:59 -10.7 °C -16.2 °C 34645.6 hPa Calm     51 % 0 mm 40.0 W/m2 BKN
17:04 -11 °C -16.3 °C 34645.6 hPa Calm     52 % 0 mm 32.0 W/m2 BKN
17:09 -11.3 °C -16.4 °C 34645.6 hPa Calm     53 % 0 mm 23.0 W/m2 BKN
17:14 -11.6 °C -16.7 °C 34659.1 hPa Calm     53 % 0 mm 18.0 W/m2 BKN
17:16 -11.6 °C -16.7 °C 34659.1 hPa Calm     53 % 0 mm 16.0 W/m2 BKN
17:21 -11.9 °C -16.9 °C 34659.1 hPa Calm     54 % 0 mm 12.0 W/m2 BKN
17:26 -12.2 °C -17 °C 34659.1 hPa Calm     55 % 0 mm 11.0 W/m2 BKN
17:31 -12.6 °C -17.3 °C 34659.1 hPa Calm     55 % 0 mm 9.0 W/m2 BKN
17:36 -12.8 °C -17.4 °C 34659.1 hPa Calm     56 % 0 mm 5.0 W/m2 OVC
17:41 -12.8 °C -17.4 °C 34659.1 hPa Calm     56 % 0 mm 0.0 W/m2 OVC
17:46 -13.2 °C -17.6 °C 34659.1 hPa Calm     57 % 0 mm 0.0 W/m2 OVC
17:51 -13.2 °C -17.6 °C 34659.1 hPa Calm     57 % 0 mm 0.0 W/m2 CLR
17:52 -13.2 °C -17.6 °C 34659.1 hPa Calm     57 % 0 mm 0.0 W/m2 CLR
17:57 -13.4 °C -17.6 °C 34659.1 hPa Calm     59 % 0 mm 0.0 W/m2 CLR
18:02 -13.8 °C -18.1 °C 34669.3 hPa Calm     58 % 0 mm 0.0 W/m2 CLR
18:07 -13.8 °C -17.9 °C 34669.3 hPa Calm     59 % 0 mm 0.0 W/m2 CLR
18:12 -13.4 °C -17.5 °C 34669.3 hPa Calm     60 % 0 mm 0.0 W/m2 CLR
18:17 -13.4 °C -17.4 °C 34669.3 hPa Calm     61 % 0 mm 0.0 W/m2 CLR
18:22 -13.8 °C -17.6 °C 34669.3 hPa Calm     62 % 0 mm 0.0 W/m2 CLR
18:27 -14.1 °C -17.7 °C 34669.3 hPa Calm     63 % 0 mm 0.0 W/m2 CLR
18:32 -14.1 °C -17.7 °C 34682.8 hPa Calm     63 % 0 mm 0.0 W/m2 CLR
18:37 -14.4 °C -17.9 °C 34682.8 hPa Calm     64 % 0 mm 0.0 W/m2 CLR
18:42 -14.4 °C -17.9 °C 34682.8 hPa Calm     64 % 0 mm 0.0 W/m2 CLR
18:47 -14.7 °C -18.1 °C 34682.8 hPa Calm     65 % 0 mm 0.0 W/m2 CLR
18:52 -15 °C -18.2 °C 34682.8 hPa Calm     66 % 0 mm 0.0 W/m2 CLR
18:57 -15 °C -18.1 °C 34693 hPa Calm     67 % 0 mm 0.0 W/m2 CLR
19:02 -15 °C -18 °C 34693 hPa Calm     68 % 0 mm 0.0 W/m2 CLR
19:07 -15 °C -17.9 °C 34693 hPa Calm     69 % 0 mm 0.0 W/m2 CLR
19:09 -15 °C -17.9 °C 34693 hPa Calm     69 % 0 mm 0.0 W/m2 CLR
19:12 -15 °C -17.9 °C 34693 hPa Calm     69 % 0 mm 0.0 W/m2 CLR
19:17 -15 °C -17.9 °C 34693 hPa Calm     69 % 0 mm 0.0 W/m2 CLR
19:49 -15 °C -17.9 °C 34693 hPa Calm     69 % 0 mm 0.0 W/m2 CLR
19:54 -15.9 °C -18.4 °C 34703.1 hPa Calm     73 % 0 mm 0.0 W/m2 CLR
19:59 -15.9 °C -18.4 °C 34703.1 hPa Calm     73 % 0 mm 0.0 W/m2 CLR
20:04 -15.9 °C -18.4 °C 34703.1 hPa Calm     73 % 0 mm 0.0 W/m2 CLR
20:09 -15.9 °C -18.3 °C 34703.1 hPa Calm     74 % 0 mm 0.0 W/m2 CLR
20:14 -16.2 °C -18.6 °C 34703.1 hPa Calm     74 % 0 mm 0.0 W/m2 CLR
20:19 -16.2 °C -18.6 °C 34703.1 hPa Calm     74 % 0 mm 0.0 W/m2 CLR
20:24 -16.2 °C -18.6 °C 34703.1 hPa Calm     74 % 0 mm 0.0 W/m2 CLR
20:29 -16.2 °C -18.4 °C 34716.7 hPa Calm     75 % 0 mm 0.0 W/m2 CLR
20:34 -16.2 °C -18.4 °C 34716.7 hPa Calm     75 % 0 mm 0.0 W/m2 CLR
20:39 -15.9 °C -18.2 °C 34703.1 hPa Calm     75 % 0 mm 0.0 W/m2 CLR
20:44 -15.9 °C -18.1 °C 34703.1 hPa Calm     76 % 0 mm 0.0 W/m2 CLR
20:49 -15.9 °C -17.9 °C 34716.7 hPa Calm     77 % 0 mm 0.0 W/m2 CLR
20:54 -16.2 °C -18.2 °C 34716.7 hPa Calm     77 % 0 mm 0.0 W/m2 CLR
20:59 -15.9 °C -17.9 °C 34716.7 hPa Calm     77 % 0 mm 0.0 W/m2 CLR
21:04 -15.9 °C -18.1 °C 34716.7 hPa Calm     76 % 0 mm 0.0 W/m2 CLR
21:09 -15.6 °C -17.6 °C 34726.8 hPa Calm     78 % 0 mm 0.0 W/m2 CLR
21:14 -15.6 °C -17.4 °C 34726.8 hPa Calm     79 % 0 mm 0.0 W/m2 CLR
21:19 -15.9 °C -17.9 °C 34726.8 hPa Calm     78 % 0 mm 0.0 W/m2 CLR
21:24 -15.9 °C -17.9 °C 34726.8 hPa Calm     78 % 0 mm 0.0 W/m2 CLR
21:29 -16.2 °C -18.2 °C 34726.8 hPa Calm     77 % 0 mm 0.0 W/m2 CLR
21:34 -16.2 °C -18.2 °C 34726.8 hPa Calm     78 % 0 mm 0.0 W/m2 CLR
21:39 -16.2 °C -18.2 °C 34726.8 hPa Calm     78 % 0 mm 0.0 W/m2 CLR
21:44 -16.2 °C -18.1 °C 34726.8 hPa Calm     79 % 0 mm 0.0 W/m2 CLR
21:49 -16.2 °C -17.9 °C 34726.8 hPa Calm     80 % 0 mm 0.0 W/m2 CLR
21:54 -16.6 °C -18.4 °C 34726.8 hPa Calm     79 % 0 mm 0.0 W/m2 CLR
21:59 -16.6 °C -18.3 °C 34726.8 hPa Calm     80 % 0 mm 0.0 W/m2 CLR
22:05 -16.6 °C -18.3 °C 34726.8 hPa Calm     80 % 0 mm 0.0 W/m2 CLR
22:10 -16.2 °C -17.9 °C 34726.8 hPa Calm     80 % 0 mm 0.0 W/m2 CLR
22:15 -16.2 °C -17.9 °C 34726.8 hPa Calm     80 % 0 mm 0.0 W/m2 CLR
22:20 -16.6 °C -18.3 °C 34726.8 hPa Calm     80 % 0 mm 0.0 W/m2 CLR
22:25 -16.6 °C -18.3 °C 34726.8 hPa Calm     80 % 0 mm 0.0 W/m2 CLR
22:30 -16.6 °C -18.4 °C 34726.8 hPa Calm     79 % 0 mm 0.0 W/m2 CLR
22:35 -16.8 °C -18.6 °C 34740.4 hPa Calm     80 % 0 mm 0.0 W/m2 CLR
22:40 -16.8 °C -18.6 °C 34740.4 hPa Calm     80 % 0 mm 0.0 W/m2 CLR
22:45 -16.8 °C -18.4 °C 34740.4 hPa Calm     81 % 0 mm 0.0 W/m2 CLR
22:50 -16.8 °C -18.4 °C 34740.4 hPa Calm     82 % 0 mm 0.0 W/m2 CLR
22:55 -16.8 °C -18.4 °C 34740.4 hPa Calm     81 % 0 mm 0.0 W/m2 CLR
23:00 -16.6 °C -18 °C 34740.4 hPa Calm     83 % 0 mm 0.0 W/m2 CLR
23:05 -16.8 °C -18.4 °C 34740.4 hPa Calm     82 % 0 mm 0.0 W/m2 CLR
23:10 -16.8 °C -18.4 °C 34740.4 hPa Calm     81 % 0 mm 0.0 W/m2 CLR
23:15 -16.8 °C -18.4 °C 34740.4 hPa Calm     82 % 0 mm 0.0 W/m2 CLR
23:20 -16.8 °C -18.4 °C 34740.4 hPa Calm     82 % 0 mm 0.0 W/m2 CLR
23:25 -16.6 °C -18.2 °C 34740.4 hPa Calm     81 % 0 mm 0.0 W/m2 CLR
23:30 -16.8 °C -18.4 °C 34740.4 hPa Calm     82 % 0 mm 0.0 W/m2 CLR
23:35 -16.8 °C -18.3 °C 34740.4 hPa Calm     83 % 0 mm 0.0 W/m2 CLR
23:40 -16.8 °C -18.2 °C 34740.4 hPa Calm     84 % 0 mm 0.0 W/m2 CLR
23:45 -17.2 °C -18.5 °C 34740.4 hPa Calm     84 % 0 mm 0.0 W/m2 CLR
23:50 -17.2 °C -18.5 °C 34740.4 hPa Calm     84 % 0 mm 0.0 W/m2 CLR
23:55 -17.2 °C -18.4 °C 34740.4 hPa Calm     85 % 0 mm 0.0 W/m2 CLR
Lo Temps de Massalio
Compliments of Weather Underground - 1.25 mb